Time;durP1;ratioP1;P1;durP2;ratioP2;P2;SDS_P1;SDS_P2;PMS_P1;PMS_P2;Temp;Humidity;BMP_temperature;BMP_pressure;BME280_temperature;BME280_humidity;BME280_pressure;Samples;Min_cycle;Max_cycle;Signal;HPM_P1;HPM_P2
2021/07/05 00:01:20;;;;;;;10.40;7.70;;;;;;;21.26;86.79;99696.95;1659333;84;21153;-72
2021/07/05 00:03:47;;;;;;;9.60;8.30;;;;;;;21.25;86.57;99694.00;1663291;84;21644;-72
2021/07/05 00:06:14;;;;;;;9.77;6.97;;;;;;;21.23;86.39;99686.22;1664634;84;21080;-72
2021/07/05 00:08:42;;;;;;;8.13;7.30;;;;;;;21.23;86.20;99686.22;1663136;86;21091;-70
2021/07/05 00:11:09;;;;;;;8.40;6.93;;;;;;;21.21;85.99;99687.13;1667023;84;21119;-71
2021/07/05 00:13:37;;;;;;;9.27;8.07;;;;;;;21.19;85.89;99686.70;1660608;84;21155;-72
2021/07/05 00:16:06;;;;;;;8.63;7.73;;;;;;;21.16;85.82;99686.58;1666877;84;21103;-71
2021/07/05 00:18:34;;;;;;;8.43;6.80;;;;;;;21.12;85.62;99682.42;1666151;84;21149;-70
2021/07/05 00:21:02;;;;;;;9.63;6.90;;;;;;;21.08;85.49;99685.62;1666152;84;21123;-71
2021/07/05 00:23:29;;;;;;;10.13;7.03;;;;;;;21.04;85.51;99683.39;1663286;84;21155;-73
2021/07/05 00:25:56;;;;;;;8.00;6.80;;;;;;;21.01;85.57;99681.37;1667501;84;21148;-72
2021/07/05 00:28:24;;;;;;;8.33;6.93;;;;;;;20.99;85.54;99670.88;1668826;84;21088;-71
2021/07/05 00:30:51;;;;;;;10.33;7.00;;;;;;;20.97;85.51;99674.49;1668783;86;21106;-72
2021/07/05 00:33:19;;;;;;;10.17;6.80;;;;;;;20.96;85.52;99678.89;1700006;82;21082;-71
2021/07/05 00:35:46;;;;;;;9.50;7.17;;;;;;;20.92;85.51;99666.59;1700548;82;21055;-72
2021/07/05 00:38:13;;;;;;;8.87;6.60;;;;;;;20.90;85.52;99664.81;1703125;82;21124;-72
2021/07/05 00:40:39;;;;;;;9.17;6.70;;;;;;;20.87;85.53;99663.36;1702492;83;21083;-71
2021/07/05 00:43:06;;;;;;;8.20;6.37;;;;;;;20.84;85.59;99661.55;1704675;83;21065;-71
2021/07/05 00:45:32;;;;;;;8.40;6.63;;;;;;;20.82;85.63;99663.81;1698754;82;21124;-71
2021/07/05 00:47:59;;;;;;;7.33;6.60;;;;;;;20.80;85.65;99654.46;1705529;83;20956;-71
2021/07/05 00:50:27;;;;;;;7.50;6.03;;;;;;;20.79;85.66;99663.14;1701230;83;21133;-72
2021/07/05 00:53:15;;;;;;;7.53;6.43;;;;;;;20.80;85.62;99665.32;1664478;84;20973;-71
2021/07/05 00:55:43;;;;;;;9.30;6.27;;;;;;;20.78;85.63;99662.16;1655183;84;21594;-71
2021/07/05 00:58:10;;;;;;;8.90;6.13;;;;;;;20.75;85.63;99660.13;1645035;85;21072;-71
2021/07/05 01:00:37;;;;;;;9.30;6.20;;;;;;;20.70;85.72;99665.83;1649461;85;21104;-71
2021/07/05 01:03:06;;;;;;;7.57;5.50;;;;;;;20.66;85.79;99669.77;1654315;86;21073;-71
2021/07/05 01:05:33;;;;;;;8.33;6.20;;;;;;;20.66;85.83;99667.63;1645060;86;21080;-72
2021/07/05 01:08:00;;;;;;;7.77;5.57;;;;;;;20.62;85.82;99668.89;1384987;86;10000248;-72
2021/07/05 01:10:27;;;;;;;8.20;6.43;;;;;;;20.60;85.87;99668.47;1640313;86;21062;-71
2021/07/05 01:12:55;;;;;;;8.27;5.80;;;;;;;20.59;85.94;99673.65;1649643;86;21133;-69
2021/07/05 01:15:25;;;;;;;7.97;5.83;;;;;;;20.57;85.98;99673.22;1635473;86;21085;-72
2021/07/05 01:17:55;;;;;;;7.17;5.70;;;;;;;20.55;86.03;99676.84;1629367;86;21097;-71
2021/07/05 01:20:26;;;;;;;8.07;6.23;;;;;;;20.55;86.06;99675.48;1676089;84;21116;-72
2021/07/05 01:22:53;;;;;;;8.00;5.62;;;;;;;20.54;86.11;99674.70;1638670;86;21766;-72
2021/07/05 01:25:23;;;;;;;7.17;5.90;;;;;;;20.54;86.05;99679.34;1632645;86;21691;-72
2021/07/05 01:27:50;;;;;;;7.70;6.17;;;;;;;20.56;86.03;99675.69;1628601;86;21070;-72
2021/07/05 01:30:19;;;;;;;10.77;5.87;;;;;;;20.54;85.95;99671.20;1641390;86;21277;-72
2021/07/05 01:32:47;;;;;;;7.70;5.50;;;;;;;20.52;85.93;99674.81;1639013;86;21110;-71
2021/07/05 01:35:13;;;;;;;8.10;5.93;;;;;;;20.51;86.00;99666.46;1639099;85;21088;-72
2021/07/05 01:37:40;;;;;;;7.57;5.30;;;;;;;20.47;86.06;99670.98;1633241;86;21564;-71
2021/07/05 01:40:13;;;;;;;7.67;5.27;;;;;;;20.42;86.12;99672.56;1668097;84;21735;-72
2021/07/05 01:42:38;;;;;;;8.07;5.80;;;;;;;20.39;86.26;99675.39;1671361;84;21051;-72
2021/07/05 01:45:06;;;;;;;6.80;5.60;;;;;;;20.36;86.37;99667.94;1666605;84;21633;-72
2021/07/05 01:47:33;;;;;;;6.53;5.30;;;;;;;20.34;86.50;99669.66;1642009;86;20999;-73
2021/07/05 01:50:00;;;;;;;7.10;5.77;;;;;;;20.32;86.65;99677.33;1639119;86;21051;-74
2021/07/05 01:52:27;;;;;;;6.73;5.50;;;;;;;20.26;86.84;99681.41;1640300;86;21043;-73
2021/07/05 01:54:55;;;;;;;7.73;6.27;;;;;;;20.21;87.10;99687.09;1631845;86;21180;-72
2021/07/05 01:57:25;;;;;;;7.73;5.60;;;;;;;20.18;87.24;99685.06;1644009;86;21916;-72
2021/07/05 01:59:55;;;;;;;7.50;5.80;;;;;;;20.18;87.36;99689.70;1632253;86;21110;-73
2021/07/05 02:02:22;;;;;;;9.10;6.20;;;;;;;20.18;87.43;99692.41;1636007;86;21058;-74
2021/07/05 02:04:51;;;;;;;7.57;5.63;;;;;;;20.17;87.52;99688.09;1639573;86;21418;-73
2021/07/05 02:07:18;;;;;;;7.27;5.77;;;;;;;20.17;87.55;99697.05;1678695;84;21096;-74
2021/07/05 02:09:45;;;;;;;8.87;5.90;;;;;;;20.18;87.59;99693.77;1668530;83;22274;-72
2021/07/05 02:12:13;;;;;;;8.00;5.53;;;;;;;20.18;87.57;99695.13;1631839;86;21064;-73
2021/07/05 02:14:40;;;;;;;7.77;5.83;;;;;;;20.17;87.59;99697.05;1654865;86;21636;-72
2021/07/05 02:17:10;;;;;;;9.27;5.70;;;;;;;20.19;87.58;99700.76;1662261;84;21202;-73
2021/07/05 02:19:38;;;;;;;7.90;5.73;;;;;;;20.22;87.53;99698.15;1664713;84;21059;-74
2021/07/05 02:22:06;;;;;;;6.70;5.90;;;;;;;20.27;87.40;99697.11;1631264;86;21133;-73
2021/07/05 02:24:33;;;;;;;8.33;5.47;;;;;;;20.30;87.28;99701.31;1644489;86;21089;-73
2021/07/05 02:26:59;;;;;;;8.43;5.60;;;;;;;20.31;87.15;99697.45;1641363;86;21141;-73
2021/07/05 02:29:26;;;;;;;8.63;6.00;;;;;;;20.33;87.04;99692.46;1643310;86;21550;-73
2021/07/05 02:31:53;;;;;;;8.93;5.80;;;;;;;20.37;87.00;99697.44;1640577;86;21060;-72
2021/07/05 02:34:20;;;;;;;7.33;5.87;;;;;;;20.41;86.82;99698.12;1652158;86;21119;-73
2021/07/05 02:36:46;;;;;;;8.53;6.00;;;;;;;20.43;86.70;99687.69;1648370;86;21547;-73
2021/07/05 02:39:14;;;;;;;8.83;5.73;;;;;;;20.46;86.60;99699.21;1656278;86;20979;-74
2021/07/05 02:41:40;;;;;;;7.03;5.30;;;;;;;20.50;86.46;99701.45;1651933;86;21173;-73
2021/07/05 02:44:08;;;;;;;8.77;5.83;;;;;;;20.55;86.34;99707.47;1627527;86;21600;-73
2021/07/05 02:46:35;;;;;;;7.30;5.73;;;;;;;20.58;86.23;99708.13;1664933;84;21142;-72
2021/07/05 02:49:02;;;;;;;10.03;6.47;;;;;;;20.66;86.13;99710.47;1680198;83;21025;-74
2021/07/05 02:51:29;;;;;;;5.97;5.20;;;;;;;20.70;85.75;99708.67;1639623;87;21118;-73
2021/07/05 02:53:56;;;;;;;7.83;5.63;;;;;;;20.69;85.50;99703.00;1636158;86;21069;-73
2021/07/05 02:56:23;;;;;;;8.23;5.67;;;;;;;20.69;85.28;99707.07;1658262;86;21082;-73
2021/07/05 02:58:51;;;;;;;6.50;5.40;;;;;;;20.67;85.22;99709.36;1611074;87;21270;-73
2021/07/05 03:01:18;;;;;;;7.10;5.93;;;;;;;20.69;85.27;99715.21;1629745;87;21629;-74
2021/07/05 03:03:46;;;;;;;6.93;5.67;;;;;;;20.74;85.29;99716.91;1665401;84;21416;-73
2021/07/05 03:06:12;;;;;;;9.17;5.90;;;;;;;20.79;85.19;99707.93;1634318;86;21122;-73
2021/07/05 03:08:39;;;;;;;7.67;6.47;;;;;;;20.84;85.02;99708.27;1663974;84;21047;-72
2021/07/05 03:11:08;;;;;;;9.07;6.50;;;;;;;20.88;84.83;99713.78;1632890;86;21149;-72
2021/07/05 03:13:34;;;;;;;7.00;6.17;;;;;;;20.89;84.54;99711.28;1639366;86;21452;-73
2021/07/05 03:16:01;;;;;;;7.70;5.33;;;;;;;20.91;84.39;99710.38;1635414;86;21529;-72
2021/07/05 03:18:28;;;;;;;7.60;6.47;;;;;;;20.93;84.35;99702.13;1643401;86;20992;-71
2021/07/05 03:20:54;;;;;;;7.20;6.13;;;;;;;20.96;84.16;99704.69;1635411;86;21038;-72
2021/07/05 03:23:25;;;;;;;7.00;6.17;;;;;;;20.96;84.03;99700.61;1654033;86;21151;-72
2021/07/05 03:25:53;;;;;;;6.60;5.97;;;;;;;20.98;83.94;99705.14;1642433;86;21086;-73
2021/07/05 03:28:20;;;;;;;7.10;6.07;;;;;;;20.99;83.92;99702.09;1640394;86;21365;-73
2021/07/05 03:30:49;;;;;;;7.97;6.43;;;;;;;21.02;83.78;99706.80;1642034;86;21096;-74
2021/07/05 03:33:16;;;;;;;7.67;6.67;;;;;;;21.02;83.66;99708.73;1645658;86;21004;-73
2021/07/05 03:35:44;;;;;;;7.97;6.80;;;;;;;21.07;83.77;99715.28;1654744;86;21142;-73
2021/07/05 03:38:10;;;;;;;8.10;6.70;;;;;;;;;;1638310;86;21424;-73
2021/07/05 03:40:38;;;;;;;8.07;6.43;;;;;;;21.16;83.51;99711.84;1677538;84;21026;-72
2021/07/05 03:43:06;;;;;;;7.00;6.30;;;;;;;21.21;83.44;99699.92;1635916;86;21575;-72
2021/07/05 03:45:36;;;;;;;7.67;6.87;;;;;;;21.29;83.12;99705.19;1640480;86;21118;-72
2021/07/05 03:48:04;;;;;;;8.10;6.83;;;;;;;21.35;83.05;99703.59;1615780;87;21081;-74
2021/07/05 03:50:32;;;;;;;7.80;6.63;;;;;;;21.38;82.58;99701.53;1640871;86;21149;-73
2021/07/05 03:52:58;;;;;;;9.37;6.60;;;;;;;21.42;82.35;99702.41;1640732;86;21067;-73
2021/07/05 03:55:28;;;;;;;10.90;7.43;;;;;;;21.43;82.13;99702.06;1633214;86;21047;-72
2021/07/05 03:57:57;;;;;;;7.90;7.20;;;;;;;21.46;81.90;99700.58;1653114;85;21157;-73
2021/07/05 04:00:29;;;;;;;8.77;6.87;;;;;;;21.49;81.89;99706.67;1663391;85;21156;-72
2021/07/05 04:02:56;;;;;;;8.97;6.80;;;;;;;21.51;81.45;99702.45;1637038;86;20971;-74
2021/07/05 04:05:23;;;;;;;7.47;6.70;;;;;;;21.52;81.38;99704.62;1642870;85;21123;-73
2021/07/05 04:07:51;;;;;;;9.77;7.33;;;;;;;21.54;81.39;99706.40;1653526;85;21043;-75
2021/07/05 04:10:18;;;;;;;8.23;6.60;;;;;;;21.62;81.42;99705.98;1661408;85;21132;-72
2021/07/05 04:12:45;;;;;;;9.30;7.20;;;;;;;21.71;81.13;99699.23;1669535;84;21107;-73
2021/07/05 04:15:14;;;;;;;8.97;7.13;;;;;;;21.72;80.75;99699.47;1670929;84;21632;-73
2021/07/05 04:17:41;;;;;;;8.47;6.80;;;;;;;21.77;80.52;99701.13;1652231;85;21025;-73
2021/07/05 04:20:11;;;;;;;7.60;6.70;;;;;;;21.81;80.19;99706.63;1658889;85;21064;-73
2021/07/05 04:22:38;;;;;;;7.73;6.90;;;;;;;21.87;80.30;99709.30;1632899;86;20979;-73
2021/07/05 04:25:07;;;;;;;7.93;7.13;;;;;;;21.93;80.16;99705.96;1667700;84;21280;-72
2021/07/05 04:27:34;;;;;;;8.13;7.20;;;;;;;22.03;79.95;99708.70;1633219;86;21554;-73
2021/07/05 04:30:01;;;;;;;8.77;7.30;;;;;;;22.12;79.38;99713.38;1660700;85;21007;-74
2021/07/05 04:32:28;;;;;;;8.47;7.17;;;;;;;22.20;79.29;99706.97;1637732;86;21114;-73
2021/07/05 04:34:56;;;;;;;9.60;7.47;;;;;;;22.29;79.24;99707.35;1633849;87;21094;-72
2021/07/05 04:37:23;;;;;;;11.20;7.60;;;;;;;22.33;78.63;99706.27;1637164;86;21169;-73
2021/07/05 04:39:50;;;;;;;8.40;7.50;;;;;;;22.38;78.32;99704.64;1618804;87;21099;-73
2021/07/05 04:42:17;;;;;;;8.73;7.63;;;;;;;22.48;77.90;99709.52;1642313;86;21066;-74
2021/07/05 04:44:46;;;;;;;8.27;7.47;;;;;;;22.57;77.29;99708.50;1633315;86;21058;-73
2021/07/05 04:47:13;;;;;;;7.90;7.10;;;;;;;22.64;76.90;99712.17;1654563;85;20984;-73
2021/07/05 04:49:40;;;;;;;8.97;7.20;;;;;;;22.71;76.77;99710.95;1633833;86;21179;-73
2021/07/05 04:52:07;;;;;;;7.90;7.07;;;;;;;22.87;76.67;99710.09;1644853;86;21670;-72
2021/07/05 04:54:34;;;;;;;9.07;7.43;;;;;;;23.05;76.22;99707.12;1632920;86;21073;-75
2021/07/05 04:57:01;;;;;;;7.93;7.13;;;;;;;23.19;75.57;99713.41;1640503;86;21105;-73
2021/07/05 04:59:29;;;;;;;9.43;8.00;;;;;;;23.24;74.66;99711.75;1651576;86;21073;-71
2021/07/05 05:01:55;;;;;;;9.40;7.60;;;;;;;23.28;73.96;99708.51;1625909;86;21828;-73
2021/07/05 05:04:22;;;;;;;10.20;7.73;;;;;;;23.32;73.83;99711.30;1643901;86;21070;-72
2021/07/05 05:06:50;;;;;;;8.47;7.30;;;;;;;23.35;73.67;99704.54;1633168;86;21075;-73
2021/07/05 05:09:17;;;;;;;9.17;8.23;;;;;;;23.36;73.41;99707.49;1636410;86;21565;-73
2021/07/05 05:11:45;;;;;;;8.70;7.70;;;;;;;23.34;73.42;99707.06;1625959;87;21521;-72
2021/07/05 05:14:12;;;;;;;9.17;8.27;;;;;;;23.36;73.68;99703.41;1641214;86;21534;-73
2021/07/05 05:16:39;;;;;;;8.87;7.70;;;;;;;23.49;73.96;99711.37;1643181;86;21507;-74
2021/07/05 05:19:07;;;;;;;8.57;7.60;;;;;;;23.65;73.65;99708.72;1616242;86;21101;-73
2021/07/05 05:21:36;;;;;;;8.90;8.10;;;;;;;23.77;73.21;99706.41;1646595;86;21063;-72
2021/07/05 05:24:04;;;;;;;9.80;7.57;;;;;;;23.90;72.89;99708.36;1634618;86;21166;-73
2021/07/05 05:26:31;;;;;;;8.20;7.20;;;;;;;23.99;72.12;99708.11;1636115;86;21174;-73
2021/07/05 05:28:58;;;;;;;8.50;7.70;;;;;;;24.00;71.36;99712.39;1652476;85;21036;-72
2021/07/05 05:31:24;;;;;;;7.60;6.90;;;;;;;23.97;71.25;99711.19;1639896;86;21062;-73
2021/07/05 05:33:51;;;;;;;8.77;7.87;;;;;;;24.00;71.54;99713.18;1620136;87;21283;-73
2021/07/05 05:36:18;;;;;;;7.83;7.03;;;;;;;24.03;70.90;99704.27;1635329;86;21113;-73
2021/07/05 05:38:48;;;;;;;11.60;8.07;;;;;;;24.01;70.96;99703.83;1649110;86;21562;-72
2021/07/05 05:41:15;;;;;;;12.03;8.30;;;;;;;24.04;71.11;99705.83;1641899;86;21123;-73
2021/07/05 05:43:44;;;;;;;11.17;8.00;;;;;;;24.10;71.00;99702.99;1633725;86;21038;-72
2021/07/05 05:46:16;;;;;;;8.93;7.93;;;;;;;24.17;70.58;99694.70;1633572;86;21047;-73
2021/07/05 05:48:44;;;;;;;9.83;7.80;;;;;;;24.17;70.08;99695.48;1642067;86;21035;-73
2021/07/05 05:51:11;;;;;;;9.83;7.57;;;;;;;24.23;70.15;99689.13;1653093;85;21132;-73
2021/07/05 05:53:37;;;;;;;9.53;7.57;;;;;;;24.30;70.04;99689.22;1638021;86;21095;-73
2021/07/05 05:56:04;;;;;;;8.13;7.33;;;;;;;24.41;69.42;99683.33;1654929;85;21032;-73
2021/07/05 05:58:35;;;;;;;8.20;7.40;;;;;;;24.52;69.34;99683.48;1635046;87;21035;-73
2021/07/05 06:01:01;;;;;;;9.57;7.83;;;;;;;24.64;69.48;99681.06;1636523;86;21615;-72
2021/07/05 06:03:29;;;;;;;9.93;7.90;;;;;;;24.80;69.44;99679.69;1645947;84;21696;-72
2021/07/05 06:05:56;;;;;;;8.53;7.73;;;;;;;24.96;69.09;99679.45;1670022;84;20987;-72
2021/07/05 06:08:24;;;;;;;9.17;8.10;;;;;;;25.12;68.01;99690.77;1656166;86;21541;-73
2021/07/05 06:10:51;;;;;;;8.43;7.63;;;;;;;25.20;67.46;99686.34;1640243;86;21149;-72
2021/07/05 06:13:18;;;;;;;10.87;7.27;;;;;;;25.34;67.31;99689.80;1641312;86;21037;-73
2021/07/05 06:15:44;;;;;;;8.33;7.53;;;;;;;25.48;66.61;99675.45;1651138;86;21113;-72
2021/07/05 06:18:11;;;;;;;10.03;8.00;;;;;;;25.51;66.21;99678.80;1634164;86;21602;-72
2021/07/05 06:20:38;;;;;;;11.27;8.20;;;;;;;25.54;66.17;99686.25;1637236;86;21027;-72
2021/07/05 06:23:17;;;;;;;9.77;8.03;;;;;;;25.58;66.12;99687.05;1660408;83;21012;-72
2021/07/05 06:25:38;;;;;;;13.83;7.80;;;;;;;25.60;65.63;99684.73;1616441;86;21033;-73
2021/07/05 06:28:05;;;;;;;7.80;7.00;;;;;;;25.60;65.12;99683.92;1644155;85;21202;-73
2021/07/05 06:30:32;;;;;;;7.97;6.90;;;;;;;25.57;65.39;99683.31;1650949;85;21111;-72
2021/07/05 06:32:59;;;;;;;10.10;8.20;;;;;;;25.54;65.24;99688.20;1659164;85;21020;-72
2021/07/05 06:35:25;;;;;;;8.63;7.83;;;;;;;25.47;65.20;99680.14;1630918;86;21120;-72
2021/07/05 06:37:52;;;;;;;10.37;7.93;;;;;;;25.47;65.14;99679.37;1654542;85;21041;-72
2021/07/05 06:40:19;;;;;;;8.07;7.27;;;;;;;25.48;65.33;99676.83;1644185;86;21115;-73
2021/07/05 06:42:46;;;;;;;10.77;8.20;;;;;;;25.50;65.39;99678.58;1637543;86;21125;-73
2021/07/05 06:45:13;;;;;;;8.87;7.70;;;;;;;25.55;65.57;99674.73;1642016;86;21522;-73
2021/07/05 06:47:39;;;;;;;10.00;8.50;;;;;;;25.58;65.67;99674.75;1657616;85;21142;-73
2021/07/05 06:50:07;;;;;;;9.60;8.60;;;;;;;25.66;65.21;99669.52;1635621;86;21069;-72
2021/07/05 06:52:34;;;;;;;8.90;8.00;;;;;;;25.71;65.48;99671.13;1636023;86;21491;-71
2021/07/05 06:55:01;;;;;;;9.03;8.13;;;;;;;25.77;65.28;99673.72;1656765;85;21510;-73
2021/07/05 06:57:29;;;;;;;9.07;8.17;;;;;;;25.77;65.36;99683.88;1628586;85;21287;-74
2021/07/05 06:59:57;;;;;;;7.90;7.20;;;;;;;25.77;65.26;99681.92;1651854;85;21115;-73
2021/07/05 07:02:24;;;;;;;9.47;8.43;;;;;;;25.76;65.63;99678.18;1629209;86;21117;-73
2021/07/05 07:04:51;;;;;;;9.67;8.40;;;;;;;25.79;65.98;99672.73;1635911;86;21367;-73
2021/07/05 07:07:18;;;;;;;8.90;8.00;;;;;;;25.91;65.83;99679.30;1640152;86;21054;-73
2021/07/05 07:09:44;;;;;;;8.10;7.23;;;;;;;26.01;64.69;99677.78;1641587;86;21049;-74
2021/07/05 07:12:13;;;;;;;7.87;7.07;;;;;;;26.03;63.81;99678.20;1634437;86;21821;-73
2021/07/05 07:14:41;;;;;;;8.43;7.00;;;;;;;26.01;63.75;99683.84;1647076;86;21071;-74
2021/07/05 07:17:24;;;;;;;8.87;7.10;;;;;;;26.07;64.47;99679.58;1636573;86;21059;-73
2021/07/05 07:19:47;;;;;;;9.07;7.77;;;;;;;26.18;64.05;99672.98;1622074;86;21144;-74
2021/07/05 07:22:14;;;;;;;8.30;7.40;;;;;;;26.26;63.99;99671.08;1639594;86;22151;-74
2021/07/05 07:24:41;;;;;;;7.47;6.50;;;;;;;26.37;63.76;99675.22;1637818;86;21276;-74
2021/07/05 07:27:07;;;;;;;9.37;6.50;;;;;;;26.44;63.10;99682.09;1633911;86;21690;-73
2021/07/05 07:29:34;;;;;;;8.33;6.80;;;;;;;26.53;63.06;99687.25;1641861;85;21183;-73
2021/07/05 07:32:04;;;;;;;8.17;6.30;;;;;;;26.62;62.98;99676.69;1649540;86;37527;-74
2021/07/05 07:34:31;;;;;;;8.33;6.37;;;;;;;26.73;62.55;99688.48;1639253;86;21556;-75
2021/07/05 07:37:02;;;;;;;6.70;6.00;;;;;;;26.80;62.43;99686.34;1634278;86;21095;-73
2021/07/05 07:39:33;;;;;;;7.17;5.83;;;;;;;26.83;61.02;99683.61;1633016;85;21582;-74
2021/07/05 07:41:55;;;;;;;7.00;5.50;;;;;;;26.80;60.70;99685.75;1666269;84;22137;-73
2021/07/05 07:44:23;;;;;;;9.97;5.67;;;;;;;26.74;59.92;99688.67;1638011;85;21376;-73
2021/07/05 07:46:50;;;;;;;9.03;5.60;;;;;;;26.72;59.81;99684.73;1610494;87;21673;-73
2021/07/05 07:49:17;;;;;;;6.33;4.97;;;;;;;26.83;59.79;99693.20;1621484;86;21190;-74
2021/07/05 07:51:43;;;;;;;5.93;5.27;;;;;;;26.98;59.42;99683.03;1647568;86;21130;-72
2021/07/05 07:54:10;;;;;;;8.50;5.67;;;;;;;27.10;58.76;99687.37;1642128;86;22135;-73
2021/07/05 07:56:37;;;;;;;8.50;5.87;;;;;;;27.19;59.28;99690.55;1638167;86;21066;-72
2021/07/05 07:59:04;;;;;;;6.73;5.63;;;;;;;27.28;58.76;99688.20;1633823;86;21043;-74
2021/07/05 08:01:31;;;;;;;6.63;5.80;;;;;;;27.29;58.81;99682.91;1635063;86;21185;-73
2021/07/05 08:03:58;;;;;;;7.07;5.47;;;;;;;27.26;58.28;99693.88;1637368;86;21097;-75
2021/07/05 08:06:26;;;;;;;6.43;5.30;;;;;;;27.19;58.25;99696.63;1638759;86;21263;-75
2021/07/05 08:08:53;;;;;;;7.33;5.83;;;;;;;27.16;59.03;99698.17;1629114;86;21089;-73
2021/07/05 08:11:21;;;;;;;8.73;5.13;;;;;;;27.16;58.69;99705.63;1632855;86;21087;-74
2021/07/05 08:13:48;;;;;;;6.13;5.27;;;;;;;27.21;58.35;99704.63;1631530;86;21181;-73
2021/07/05 08:16:15;;;;;;;6.23;4.90;;;;;;;27.27;58.23;99697.59;1639489;86;21667;-72
2021/07/05 08:18:43;;;;;;;5.90;5.30;;;;;;;27.31;57.98;99698.39;1610474;87;21204;-73
2021/07/05 08:21:10;;;;;;;6.63;5.50;;;;;;;27.25;58.31;99701.33;1633281;86;20963;-73
2021/07/05 08:23:36;;;;;;;7.67;5.23;;;;;;;27.25;58.25;99701.33;1632151;86;21121;-73
2021/07/05 08:26:03;;;;;;;6.40;5.00;;;;;;;27.35;58.58;99691.53;1673044;84;21069;-74
2021/07/05 08:28:30;;;;;;;5.40;4.90;;;;;;;27.52;58.43;99688.00;1666189;84;21560;-73
2021/07/05 08:30:59;;;;;;;5.50;4.70;;;;;;;27.73;57.33;99696.01;1664396;84;21206;-74
2021/07/05 08:33:26;;;;;;;6.77;4.87;;;;;;;27.77;55.33;99699.55;1664429;84;21124;-74
2021/07/05 08:35:53;;;;;;;6.63;4.50;;;;;;;27.70;55.43;99694.05;1638557;86;21552;-74
2021/07/05 08:38:19;;;;;;;8.30;4.90;;;;;;;27.67;55.81;99683.86;1630653;86;21035;-73
2021/07/05 08:40:46;;;;;;;7.10;4.90;;;;;;;27.77;55.67;99688.58;1642785;86;21085;-74
2021/07/05 08:43:13;;;;;;;5.67;4.30;;;;;;;27.97;55.90;99689.73;1641742;85;22005;-73
2021/07/05 08:45:43;;;;;;;6.93;4.20;;;;;;;28.06;54.14;99686.55;1631031;86;21063;-74
2021/07/05 08:48:09;;;;;;;7.53;4.47;;;;;;;28.11;53.05;99677.92;1628989;86;21591;-73
2021/07/05 08:50:36;;;;;;;5.27;3.70;;;;;;;28.23;51.91;99674.75;1631087;86;21149;-75
2021/07/05 08:53:03;;;;;;;4.90;4.00;;;;;;;28.39;51.99;99678.98;1665269;84;21081;-74
2021/07/05 08:55:30;;;;;;;8.13;5.57;;;;;;;28.49;52.89;99683.08;1638381;86;21139;-73
2021/07/05 08:57:57;;;;;;;6.07;4.73;;;;;;;28.59;52.26;99680.09;1636701;86;21093;-73
2021/07/05 09:00:26;;;;;;;5.17;4.23;;;;;;;28.68;50.68;99682.41;1631014;86;21846;-73
2021/07/05 09:02:56;;;;;;;5.70;3.93;;;;;;;28.64;50.24;99687.93;1630733;86;21146;-74
2021/07/05 09:05:23;;;;;;;6.80;4.20;;;;;;;28.57;51.17;99686.59;1634337;86;21150;-73
2021/07/05 09:08:03;;;;;;;5.80;4.07;;;;;;;28.48;49.98;99686.23;1643716;86;21110;-73
2021/07/05 09:10:56;;;;;;;5.63;4.30;;;;;;;28.42;51.40;99686.46;1665080;84;21063;-73
2021/07/05 09:13:23;;;;;;;6.33;4.60;;;;;;;28.32;51.29;99689.41;1631385;86;21468;-72
2021/07/05 09:15:55;;;;;;;5.63;4.23;;;;;;;28.08;52.08;99691.66;1642520;85;21215;-74
2021/07/05 09:18:46;;;;;;;5.87;4.47;;;;;;;28.03;52.97;99685.97;1652958;84;21360;-73
2021/07/05 09:21:22;;;;;;;6.60;3.90;;;;;;;28.11;53.47;99684.01;1631238;86;21333;-72
2021/07/05 09:23:55;;;;;;;8.07;4.10;;;;;;;28.17;52.34;99695.56;1615200;86;21084;-75
2021/07/05 09:26:28;;;;;;;8.30;4.25;;;;;;;28.06;52.41;99689.30;1636322;86;21207;-72
2021/07/05 09:28:55;;;;;;;7.50;4.67;;;;;;;28.06;52.27;99689.30;1643867;86;21078;-73
2021/07/05 09:31:35;;;;;;;6.77;4.73;;;;;;;28.15;52.55;99695.16;1633271;86;21106;-72
2021/07/05 09:34:04;;;;;;;9.95;4.47;;;;;;;28.16;53.02;99701.43;1627619;86;21154;-74
2021/07/05 09:36:31;;;;;;;5.33;3.50;;;;;;;28.03;51.89;99698.33;1637424;86;21085;-73
2021/07/05 09:39:03;;;;;;;8.13;3.60;;;;;;;27.93;50.39;99693.05;1613151;86;21144;-74
2021/07/05 09:41:34;;;;;;;6.62;3.87;;;;;;;27.98;50.00;99691.29;1616271;86;21690;-73
2021/07/05 09:44:04;;;;;;;8.30;4.00;;;;;;;28.15;51.30;99686.92;1653683;85;21038;-74
2021/07/05 09:46:51;;;;;;;5.60;4.30;;;;;;;28.25;50.88;99684.73;1637786;85;21126;-73
2021/07/05 09:49:26;;;;;;;8.80;3.67;;;;;;;28.22;50.96;99691.02;1612389;87;21304;-73
2021/07/05 09:52:17;;;;;;;4.53;3.90;;;;;;;28.22;51.09;99690.23;1651741;85;21043;-74
2021/07/05 09:54:48;;;;;;;4.93;3.73;;;;;;;28.38;51.10;99692.53;1658328;85;21107;-76
2021/07/05 09:57:27;;;;;;;5.63;3.97;;;;;;;28.43;50.97;99685.27;1637241;86;21992;-74
2021/07/05 10:00:10;;;;;;;5.57;3.80;;;;;;;28.35;51.07;99693.33;1657328;85;21034;-72
2021/07/05 10:03:01;;;;;;;4.93;3.33;;;;;;;28.39;51.29;99689.41;1644209;85;21135;-71
2021/07/05 10:05:44;;;;;;;4.63;3.50;;;;;;;28.62;49.45;99687.53;1669073;84;21052;-73
2021/07/05 10:08:12;;;;;;;5.60;3.53;;;;;;;28.71;48.91;99686.51;1643430;86;21074;-71
2021/07/05 10:10:43;;;;;;;5.30;3.37;;;;;;;28.78;48.14;99685.69;1653055;85;21232;-73
2021/07/05 10:13:13;;;;;;;5.47;3.63;;;;;;;28.86;49.29;99686.42;1642079;86;21183;-72
2021/07/05 10:15:42;;;;;;;4.47;3.33;;;;;;;29.02;49.22;99688.11;1643908;86;21097;-73
2021/07/05 10:18:09;;;;;;;5.83;3.60;;;;;;;29.10;48.60;99688.27;1613844;88;21039;-75
2021/07/05 10:20:40;;;;;;;5.13;3.60;;;;;;;28.96;48.34;99685.59;1639619;86;20992;-73
2021/07/05 10:23:13;;;;;;;6.87;3.97;;;;;;;28.84;48.35;99683.30;1644690;86;21138;-72
2021/07/05 10:25:49;;;;;;;5.23;3.57;;;;;;;28.79;49.86;99679.59;1656326;86;21074;-72
2021/07/05 10:28:17;;;;;;;6.03;3.40;;;;;;;28.88;49.57;99684.06;1626924;86;20964;-73
2021/07/05 10:30:45;;;;;;;4.57;3.60;;;;;;;28.92;49.93;99681.49;1644122;86;21600;-72
2021/07/05 10:33:11;;;;;;;7.45;3.72;;;;;;;28.94;49.63;99679.70;1639350;86;21058;-73
2021/07/05 10:35:50;;;;;;;5.87;3.70;;;;;;;28.91;50.03;99681.28;1656959;86;21660;-72
2021/07/05 10:38:44;;;;;;;7.12;3.52;;;;;;;28.91;49.95;99681.28;1642404;86;21514;-72
2021/07/05 10:41:13;;;;;;;5.30;3.40;;;;;;;28.90;48.37;99678.35;1632698;86;21444;-72
2021/07/05 10:44:04;;;;;;;8.73;3.83;;;;;;;28.95;48.31;99686.16;1647363;86;21129;-72
2021/07/05 10:46:53;;;;;;;6.47;3.83;;;;;;;28.91;48.73;99681.88;1646541;86;21062;-73
2021/07/05 10:49:36;;;;;;;4.57;3.53;;;;;;;28.73;48.37;99680.63;1634400;86;21047;-73
2021/07/05 10:52:05;;;;;;;;;;;;;;;28.51;49.03;99683.47;1678818;84;21130;-72
2021/07/05 10:54:52;;;;;;;5.60;3.22;;;;;;;28.45;48.55;99685.66;1690861;84;20147;-73
2021/07/05 10:57:36;;;;;;;6.77;3.50;;;;;;;28.52;48.60;99676.02;1665173;86;21031;-71
2021/07/05 11:00:13;;;;;;;5.03;3.27;;;;;;;28.67;49.23;99683.00;1654344;84;21628;-72
2021/07/05 11:02:50;;;;;;;6.23;3.60;;;;;;;28.93;48.19;99682.27;1673761;83;21067;-73
2021/07/05 11:05:45;;;;;;;4.47;3.20;;;;;;;29.17;47.92;99676.42;1637865;86;21631;-72
2021/07/05 11:08:36;;;;;;;5.57;3.20;;;;;;;29.30;47.67;99675.34;1667603;84;21016;-72
2021/07/05 11:11:25;;;;;;;;;;;;;;;29.43;47.19;99680.54;1673173;84;21520;-71
2021/07/05 11:14:23;;;;;;;5.80;3.40;;;;;;;29.53;46.49;99676.91;1637151;86;20191;-72
2021/07/05 11:17:01;;;;;;;5.50;3.40;;;;;;;29.60;45.85;99667.84;1603305;88;21114;-72
2021/07/05 11:19:49;;;;;;;6.25;3.40;;;;;;;29.59;46.04;99671.75;1668726;84;21136;-73
2021/07/05 11:22:35;;;;;;;7.42;3.00;;;;;;;29.62;46.17;99671.75;1635599;86;21077;-72
2021/07/05 11:25:21;;;;;;;5.10;3.37;;;;;;;29.79;45.68;99667.25;1634117;86;21125;-72
2021/07/05 11:27:57;;;;;;;4.50;2.90;;;;;;;29.82;45.56;99674.69;1640501;86;21078;-72
2021/07/05 11:30:42;;;;;;;3.67;2.92;;;;;;;29.84;46.45;99662.66;1652071;85;21072;-72
2021/07/05 11:33:17;;;;;;;4.45;3.05;;;;;;;30.01;45.36;99667.00;1664537;85;21137;-72
2021/07/05 11:35:53;;;;;;;4.78;3.40;;;;;;;30.01;45.67;99662.30;1652960;85;21075;-72
2021/07/05 11:38:42;;;;;;;6.25;3.47;;;;;;;29.83;45.18;99663.08;1642440;86;21105;-72
2021/07/05 11:41:21;;;;;;;4.72;2.90;;;;;;;29.51;45.65;99664.14;1664460;84;21558;-72
2021/07/05 11:44:10;;;;;;;5.67;3.50;;;;;;;29.39;47.04;99668.80;1661954;84;21259;-73
2021/07/05 11:46:41;;;;;;;4.42;3.10;;;;;;;29.42;47.75;99658.35;1672668;84;20907;-72